sensor_id;sensor_type;location;lat;lon;timestamp;pressure;altitude;pressure_sealevel;temperature;humidity
75656;BME280;64252;51.094;13.714;2022-12-07T00:01:15;100279.69;;;2.14;92.41
75656;BME280;64252;51.094;13.714;2022-12-07T00:03:43;100270.03;;;2.12;92.61
75656;BME280;64252;51.094;13.714;2022-12-07T00:06:11;100269.25;;;2.11;91.82
75656;BME280;64252;51.094;13.714;2022-12-07T00:08:37;100266.78;;;2.10;92.17
75656;BME280;64252;51.094;13.714;2022-12-07T00:11:11;100270.72;;;2.09;91.75
75656;BME280;64252;51.094;13.714;2022-12-07T00:13:37;100262.34;;;2.09;91.59
75656;BME280;64252;51.094;13.714;2022-12-07T00:16:09;100264.47;;;2.12;91.64
75656;BME280;64252;51.094;13.714;2022-12-07T00:18:35;100264.47;;;2.12;91.26
75656;BME280;64252;51.094;13.714;2022-12-07T00:21:15;100267.94;;;2.09;91.64
75656;BME280;64252;51.094;13.714;2022-12-07T00:23:43;100261.88;;;2.07;92.00
75656;BME280;64252;51.094;13.714;2022-12-07T00:26:12;100254.31;;;2.07;92.48
75656;BME280;64252;51.094;13.714;2022-12-07T00:28:38;100249.44;;;2.04;92.25
75656;BME280;64252;51.094;13.714;2022-12-07T00:31:06;100252.22;;;2.04;92.46
75656;BME280;64252;51.094;13.714;2022-12-07T00:33:33;100251.41;;;2.04;92.20
75656;BME280;64252;51.094;13.714;2022-12-07T00:36:00;100247.16;;;1.98;91.91
75656;BME280;64252;51.094;13.714;2022-12-07T00:38:28;100244.88;;;2.00;91.97
75656;BME280;64252;51.094;13.714;2022-12-07T00:40:56;100243.41;;;2.02;91.70
75656;BME280;64252;51.094;13.714;2022-12-07T00:43:22;100238.97;;;2.01;91.73
75656;BME280;64252;51.094;13.714;2022-12-07T00:45:47;100244.19;;;2.03;91.60
75656;BME280;64252;51.094;13.714;2022-12-07T00:48:13;100237.97;;;2.06;91.28
75656;BME280;64252;51.094;13.714;2022-12-07T00:50:38;100244.69;;;2.05;91.55
75656;BME280;64252;51.094;13.714;2022-12-07T00:53:04;100240.63;;;2.02;91.87
75656;BME280;64252;51.094;13.714;2022-12-07T00:55:33;100238.63;;;2.03;91.82
75656;BME280;64252;51.094;13.714;2022-12-07T00:57:58;100243.41;;;2.02;91.35
75656;BME280;64252;51.094;13.714;2022-12-07T01:00:24;100236.34;;;2.05;91.40
75656;BME280;64252;51.094;13.714;2022-12-07T01:02:49;100244.81;;;2.08;91.36
75656;BME280;64252;51.094;13.714;2022-12-07T01:05:15;100239.59;;;2.07;91.69
75656;BME280;64252;51.094;13.714;2022-12-07T01:07:41;100237.28;;;2.09;91.26
75656;BME280;64252;51.094;13.714;2022-12-07T01:10:07;100231.72;;;2.09;90.95
75656;BME280;64252;51.094;13.714;2022-12-07T01:12:32;100232.22;;;2.11;90.70
75656;BME280;64252;51.094;13.714;2022-12-07T01:14:58;100235.00;;;2.11;91.29
75656;BME280;64252;51.094;13.714;2022-12-07T01:17:23;100230.44;;;2.06;91.62
75656;BME280;64252;51.094;13.714;2022-12-07T01:19:49;100230.75;;;2.05;91.76
75656;BME280;64252;51.094;13.714;2022-12-07T01:22:14;100227.97;;;2.05;91.71
75656;BME280;64252;51.094;13.714;2022-12-07T01:24:40;100228.47;;;2.07;91.20
75656;BME280;64252;51.094;13.714;2022-12-07T01:27:06;100227.28;;;2.08;91.78
75656;BME280;64252;51.094;13.714;2022-12-07T01:29:31;100218.63;;;2.09;92.09
75656;BME280;64252;51.094;13.714;2022-12-07T01:31:57;100223.38;;;2.09;91.44
75656;BME280;64252;51.094;13.714;2022-12-07T01:34:23;100224.50;;;2.08;91.66
75656;BME280;64252;51.094;13.714;2022-12-07T01:36:49;100221.06;;;2.11;91.89
75656;BME280;64252;51.094;13.714;2022-12-07T01:39:14;100226.16;;;2.09;92.03
75656;BME280;64252;51.094;13.714;2022-12-07T01:41:40;100224.50;;;2.08;92.30
75656;BME280;64252;51.094;13.714;2022-12-07T01:44:27;100225.69;;;2.07;91.79
75656;BME280;64252;51.094;13.714;2022-12-07T01:46:57;100224.50;;;2.08;91.48
75656;BME280;64252;51.094;13.714;2022-12-07T01:49:29;100226.16;;;2.09;91.40
75656;BME280;64252;51.094;13.714;2022-12-07T01:52:16;100226.63;;;2.11;91.49
75656;BME280;64252;51.094;13.714;2022-12-07T01:54:46;100235.00;;;2.11;91.28
75656;BME280;64252;51.094;13.714;2022-12-07T01:57:14;100226.16;;;2.09;91.74
75656;BME280;64252;51.094;13.714;2022-12-07T01:59:42;100229.44;;;2.11;91.45
75656;BME280;64252;51.094;13.714;2022-12-07T02:02:15;100217.09;;;2.12;91.46
75656;BME280;64252;51.094;13.714;2022-12-07T02:04:43;100225.31;;;2.08;91.48
75656;BME280;64252;51.094;13.714;2022-12-07T02:07:09;100220.91;;;2.07;91.13
75656;BME280;64252;51.094;13.714;2022-12-07T02:09:34;100225.69;;;2.07;91.32
75656;BME280;64252;51.094;13.714;2022-12-07T02:12:00;100230.06;;;2.08;91.81
75656;BME280;64252;51.094;13.714;2022-12-07T02:14:26;100215.25;;;1.95;90.98
75656;BME280;64252;51.094;13.714;2022-12-07T02:20:08;100226.72;;;1.64;92.23
75656;BME280;64252;51.094;13.714;2022-12-07T02:26:10;100233.19;;;1.39;93.31
75656;BME280;64252;51.094;13.714;2022-12-07T02:28:33;100217.84;;;1.24;93.00
75656;BME280;64252;51.094;13.714;2022-12-07T02:31:08;100221.78;;;1.15;93.58
75656;BME280;64252;51.094;13.714;2022-12-07T02:33:52;100212.34;;;0.99;93.70
75656;BME280;64252;51.094;13.714;2022-12-07T02:36:26;100213.81;;;0.87;94.38
75656;BME280;64252;51.094;13.714;2022-12-07T02:39:07;100209.06;;;0.71;94.62
75656;BME280;64252;51.094;13.714;2022-12-07T02:41:40;100210.56;;;0.68;95.27
75656;BME280;64252;51.094;13.714;2022-12-07T02:44:10;100210.25;;;0.61;96.11
75656;BME280;64252;51.094;13.714;2022-12-07T02:46:43;100205.66;;;0.48;96.33
75656;BME280;64252;51.094;13.714;2022-12-07T02:49:10;100201.25;;;0.38;96.71
75656;BME280;64252;51.094;13.714;2022-12-07T02:51:42;100208.75;;;0.29;97.28
75656;BME280;64252;51.094;13.714;2022-12-07T02:54:13;100196.69;;;0.51;97.63
75656;BME280;64252;51.094;13.714;2022-12-07T03:10:40;100186.56;;;0.47;97.93
75656;BME280;64252;51.094;13.714;2022-12-07T03:18:11;100176.09;;;0.35;99.60
75656;BME280;64252;51.094;13.714;2022-12-07T03:20:39;100172.50;;;0.26;99.50
75656;BME280;64252;51.094;13.714;2022-12-07T03:23:08;100167.56;;;0.14;100.00
75656;BME280;64252;51.094;13.714;2022-12-07T03:25:40;100165.97;;;0.05;100.00
75656;BME280;64252;51.094;13.714;2022-12-07T03:28:07;100174.59;;;-0.06;99.95
75656;BME280;64252;51.094;13.714;2022-12-07T03:30:55;100172.59;;;-0.14;100.00
75656;BME280;64252;51.094;13.714;2022-12-07T03:33:31;100170.63;;;-0.22;100.00
75656;BME280;64252;51.094;13.714;2022-12-07T03:36:11;100169.50;;;-0.12;100.00
75656;BME280;64252;51.094;13.714;2022-12-07T03:38:45;100172.78;;;-0.02;100.00
75656;BME280;64252;51.094;13.714;2022-12-07T03:43:42;100161.19;;;-0.04;100.00
75656;BME280;64252;51.094;13.714;2022-12-07T03:49:00;100154.34;;;-0.15;100.00
75656;BME280;64252;51.094;13.714;2022-12-07T03:54:30;100159.81;;;-0.32;100.00
75656;BME280;64252;51.094;13.714;2022-12-07T03:56:58;100156.75;;;-0.30;100.00
75656;BME280;64252;51.094;13.714;2022-12-07T03:59:24;100158.84;;;-0.27;100.00
75656;BME280;64252;51.094;13.714;2022-12-07T04:01:56;100161.47;;;-0.31;100.00
75656;BME280;64252;51.094;13.714;2022-12-07T04:04:24;100152.63;;;-0.33;100.00
75656;BME280;64252;51.094;13.714;2022-12-07T04:06:50;100151.03;;;-0.34;100.00
75656;BME280;64252;51.094;13.714;2022-12-07T04:09:16;100158.53;;;-0.26;100.00
75656;BME280;64252;51.094;13.714;2022-12-07T04:11:42;100150.72;;;-0.24;100.00
75656;BME280;64252;51.094;13.714;2022-12-07T04:14:07;100143.03;;;-0.18;100.00
75656;BME280;64252;51.094;13.714;2022-12-07T04:16:53;100140.25;;;-0.27;100.00
75656;BME280;64252;51.094;13.714;2022-12-07T04:19:23;100132.09;;;-0.32;100.00
75656;BME280;64252;51.094;13.714;2022-12-07T04:21:49;100128.47;;;-0.41;100.00
75656;BME280;64252;51.094;13.714;2022-12-07T04:24:15;100133.84;;;-0.53;100.00
75656;BME280;64252;51.094;13.714;2022-12-07T04:26:42;100135.63;;;-0.57;100.00
75656;BME280;64252;51.094;13.714;2022-12-07T04:29:08;100135.75;;;-0.71;100.00
75656;BME280;64252;51.094;13.714;2022-12-07T04:31:35;100134.56;;;-0.78;100.00
75656;BME280;64252;51.094;13.714;2022-12-07T04:34:03;100126.06;;;-0.82;100.00
75656;BME280;64252;51.094;13.714;2022-12-07T04:36:29;100119.56;;;-0.77;100.00
75656;BME280;64252;51.094;13.714;2022-12-07T04:38:56;100110.13;;;-0.76;100.00
75656;BME280;64252;51.094;13.714;2022-12-07T04:41:22;100110.56;;;-0.83;100.00
75656;BME280;64252;51.094;13.714;2022-12-07T04:43:58;100101.94;;;-0.81;100.00
75656;BME280;64252;51.094;13.714;2022-12-07T04:46:25;100098.31;;;-0.91;100.00
75656;BME280;64252;51.094;13.714;2022-12-07T04:48:51;100089.31;;;-0.96;100.00
75656;BME280;64252;51.094;13.714;2022-12-07T04:51:20;100101.84;;;-0.99;100.00
75656;BME280;64252;51.094;13.714;2022-12-07T04:53:46;100104.47;;;-0.94;100.00
75656;BME280;64252;51.094;13.714;2022-12-07T04:56:14;100096.50;;;-0.95;100.00
75656;BME280;64252;51.094;13.714;2022-12-07T04:58:40;100091.94;;;-1.00;100.00
75656;BME280;64252;51.094;13.714;2022-12-07T05:01:06;100082.69;;;-0.86;100.00
75656;BME280;64252;51.094;13.714;2022-12-07T05:03:32;100086.59;;;-0.88;100.00
75656;BME280;64252;51.094;13.714;2022-12-07T05:05:57;100076.00;;;-0.85;100.00
75656;BME280;64252;51.094;13.714;2022-12-07T05:08:23;100077.63;;;-0.84;100.00
75656;BME280;64252;51.094;13.714;2022-12-07T05:10:49;100077.00;;;-0.81;100.00
75656;BME280;64252;51.094;13.714;2022-12-07T05:13:15;100079.63;;;-0.76;100.00
75656;BME280;64252;51.094;13.714;2022-12-07T05:15:41;100084.66;;;-0.78;100.00
75656;BME280;64252;51.094;13.714;2022-12-07T05:18:10;100076.84;;;-0.76;100.00
75656;BME280;64252;51.094;13.714;2022-12-07T05:20:41;100078.97;;;-0.73;100.00
75656;BME280;64252;51.094;13.714;2022-12-07T05:23:07;100074.56;;;-0.74;100.00
75656;BME280;64252;51.094;13.714;2022-12-07T05:25:32;100079.13;;;-0.70;100.00
75656;BME280;64252;51.094;13.714;2022-12-07T05:27:58;100078.53;;;-0.58;100.00
75656;BME280;64252;51.094;13.714;2022-12-07T05:30:24;100073.00;;;-0.41;100.00
75656;BME280;64252;51.094;13.714;2022-12-07T05:32:50;100069.75;;;-0.26;100.00
75656;BME280;64252;51.094;13.714;2022-12-07T05:35:16;100071.88;;;-0.23;100.00
75656;BME280;64252;51.094;13.714;2022-12-07T05:37:42;100063.91;;;-0.16;100.00
75656;BME280;64252;51.094;13.714;2022-12-07T05:40:08;100064.22;;;-0.09;100.00
75656;BME280;64252;51.094;13.714;2022-12-07T05:42:34;100070.56;;;0.00;100.00
75656;BME280;64252;51.094;13.714;2022-12-07T05:45:00;100055.41;;;0.07;100.00
75656;BME280;64252;51.094;13.714;2022-12-07T05:47:25;100057.34;;;0.15;100.00
75656;BME280;64252;51.094;13.714;2022-12-07T05:49:51;100062.91;;;0.23;100.00
75656;BME280;64252;51.094;13.714;2022-12-07T05:52:17;100042.97;;;0.30;100.00
75656;BME280;64252;51.094;13.714;2022-12-07T05:54:42;100044.59;;;0.39;100.00
75656;BME280;64252;51.094;13.714;2022-12-07T05:57:08;100039.81;;;0.49;99.80
75656;BME280;64252;51.094;13.714;2022-12-07T05:59:33;100040.97;;;0.56;99.41
75656;BME280;64252;51.094;13.714;2022-12-07T06:02:01;100043.06;;;0.59;99.57
75656;BME280;64252;51.094;13.714;2022-12-07T06:04:30;100031.78;;;0.64;99.48
75656;BME280;64252;51.094;13.714;2022-12-07T06:06:56;100041.56;;;0.70;98.99
75656;BME280;64252;51.094;13.714;2022-12-07T06:09:23;100035.16;;;0.78;97.76
75656;BME280;64252;51.094;13.714;2022-12-07T06:11:49;100029.78;;;0.73;98.06
75656;BME280;64252;51.094;13.714;2022-12-07T06:14:33;100032.75;;;0.68;98.38
75656;BME280;64252;51.094;13.714;2022-12-07T06:16:59;100031.59;;;0.69;98.40
75656;BME280;64252;51.094;13.714;2022-12-07T06:19:25;100030.47;;;0.70;97.78
75656;BME280;64252;51.094;13.714;2022-12-07T06:21:50;100027.19;;;0.68;97.35
75656;BME280;64252;51.094;13.714;2022-12-07T06:24:16;100025.69;;;0.71;97.45
75656;BME280;64252;51.094;13.714;2022-12-07T06:26:42;100031.25;;;0.71;97.33
75656;BME280;64252;51.094;13.714;2022-12-07T06:29:08;100025.03;;;0.74;96.86
75656;BME280;64252;51.094;13.714;2022-12-07T06:31:35;100024.50;;;0.80;95.18
75656;BME280;64252;51.094;13.714;2022-12-07T06:34:02;100026.09;;;0.99;93.18
75656;BME280;64252;51.094;13.714;2022-12-07T06:36:29;100025.50;;;1.14;92.03
75656;BME280;64252;51.094;13.714;2022-12-07T06:38:55;100021.00;;;1.30;90.69
75656;BME280;64252;51.094;13.714;2022-12-07T06:41:21;100035.81;;;1.43;89.35
75656;BME280;64252;51.094;13.714;2022-12-07T06:43:46;100025.63;;;1.47;90.15
75656;BME280;64252;51.094;13.714;2022-12-07T06:46:13;100029.53;;;1.54;89.99
75656;BME280;64252;51.094;13.714;2022-12-07T06:48:39;100025.38;;;1.60;89.49
75656;BME280;64252;51.094;13.714;2022-12-07T06:51:05;100020.78;;;1.64;88.79
75656;BME280;64252;51.094;13.714;2022-12-07T06:53:30;100033.19;;;1.67;89.32
75656;BME280;64252;51.094;13.714;2022-12-07T06:55:56;100024.97;;;1.70;89.13
75656;BME280;64252;51.094;13.714;2022-12-07T06:58:22;100044.94;;;1.72;89.61
75656;BME280;64252;51.094;13.714;2022-12-07T07:00:48;100033.81;;;1.72;89.71
75656;BME280;64252;51.094;13.714;2022-12-07T07:03:15;100030.22;;;1.72;91.06
75656;BME280;64252;51.094;13.714;2022-12-07T07:05:42;100033.31;;;1.70;90.32
75656;BME280;64252;51.094;13.714;2022-12-07T07:08:07;100033.81;;;1.72;90.67
75656;BME280;64252;51.094;13.714;2022-12-07T07:10:33;100042.63;;;1.74;91.24
75656;BME280;64252;51.094;13.714;2022-12-07T07:12:59;100033.81;;;1.72;91.33
75656;BME280;64252;51.094;13.714;2022-12-07T07:15:24;100038.22;;;1.73;91.88
75656;BME280;64252;51.094;13.714;2022-12-07T07:17:50;100041.97;;;1.77;91.73
75656;BME280;64252;51.094;13.714;2022-12-07T07:20:16;100040.31;;;1.76;91.86
75656;BME280;64252;51.094;13.714;2022-12-07T07:22:41;100041.66;;;1.70;92.68
75656;BME280;64252;51.094;13.714;2022-12-07T07:25:07;100041.53;;;1.67;92.56
75656;BME280;64252;51.094;13.714;2022-12-07T07:27:32;100043.03;;;1.64;92.57
75656;BME280;64252;51.094;13.714;2022-12-07T07:29:58;100045.81;;;1.64;93.03
75656;BME280;64252;51.094;13.714;2022-12-07T07:32:23;100046.28;;;1.66;93.40
75656;BME280;64252;51.094;13.714;2022-12-07T07:34:50;100053.00;;;1.65;93.55
75656;BME280;64252;51.094;13.714;2022-12-07T07:37:16;100046.28;;;1.66;93.54
75656;BME280;64252;51.094;13.714;2022-12-07T07:39:41;100047.59;;;1.69;93.44
75656;BME280;64252;51.094;13.714;2022-12-07T07:42:06;100056.06;;;1.72;92.61
75656;BME280;64252;51.094;13.714;2022-12-07T07:44:33;100049.38;;;1.73;93.68
75656;BME280;64252;51.094;13.714;2022-12-07T07:46:59;100042.63;;;1.74;93.82
75656;BME280;64252;51.094;13.714;2022-12-07T07:49:25;100040.00;;;1.78;93.49
75656;BME280;64252;51.094;13.714;2022-12-07T07:51:51;100052.41;;;1.81;93.08
75656;BME280;64252;51.094;13.714;2022-12-07T07:54:16;100059.75;;;1.85;93.10
75656;BME280;64252;51.094;13.714;2022-12-07T07:56:42;100044.59;;;1.95;92.01
75656;BME280;64252;51.094;13.714;2022-12-07T07:59:07;100038.13;;;2.03;92.22
75656;BME280;64252;51.094;13.714;2022-12-07T08:01:33;100042.34;;;2.09;91.43
75656;BME280;64252;51.094;13.714;2022-12-07T08:03:59;100060.28;;;2.20;91.72
75656;BME280;64252;51.094;13.714;2022-12-07T08:06:25;100056.34;;;2.21;91.01
75656;BME280;64252;51.094;13.714;2022-12-07T08:08:50;100052.97;;;2.28;91.13
75656;BME280;64252;51.094;13.714;2022-12-07T08:11:16;100052.91;;;2.36;90.60
75656;BME280;64252;51.094;13.714;2022-12-07T08:13:41;100052.22;;;2.39;91.33
75656;BME280;64252;51.094;13.714;2022-12-07T08:16:10;100059.91;;;2.42;90.95
75656;BME280;64252;51.094;13.714;2022-12-07T08:18:37;100042.63;;;2.49;91.11
75656;BME280;64252;51.094;13.714;2022-12-07T08:21:03;100036.13;;;2.57;91.12
75656;BME280;64252;51.094;13.714;2022-12-07T08:23:29;100039.06;;;2.60;89.27
75656;BME280;64252;51.094;13.714;2022-12-07T08:25:55;100036.25;;;2.60;89.66
75656;BME280;64252;51.094;13.714;2022-12-07T08:28:24;100043.72;;;2.69;90.40
75656;BME280;64252;51.094;13.714;2022-12-07T08:30:50;100035.94;;;2.74;89.53
75656;BME280;64252;51.094;13.714;2022-12-07T08:33:17;100039.31;;;2.80;89.53
75656;BME280;64252;51.094;13.714;2022-12-07T08:35:42;100037.34;;;2.80;89.02
75656;BME280;64252;51.094;13.714;2022-12-07T08:38:07;100039.81;;;2.82;88.62
75656;BME280;64252;51.094;13.714;2022-12-07T08:40:33;100038.88;;;2.90;88.92
75656;BME280;64252;51.094;13.714;2022-12-07T08:42:58;100044.22;;;2.95;88.91
75656;BME280;64252;51.094;13.714;2022-12-07T08:45:24;100038.78;;;2.98;88.38
75656;BME280;64252;51.094;13.714;2022-12-07T08:47:50;100044.59;;;3.05;88.40
75656;BME280;64252;51.094;13.714;2022-12-07T08:50:17;100038.91;;;3.14;87.83
75656;BME280;64252;51.094;13.714;2022-12-07T08:52:43;100045.41;;;3.18;86.52
75656;BME280;64252;51.094;13.714;2022-12-07T08:55:11;100051.47;;;3.20;87.76
75656;BME280;64252;51.094;13.714;2022-12-07T08:57:37;100046.69;;;3.21;87.65
75656;BME280;64252;51.094;13.714;2022-12-07T09:00:04;100034.47;;;3.25;86.94
75656;BME280;64252;51.094;13.714;2022-12-07T09:02:31;100041.69;;;3.38;86.92
75656;BME280;64252;51.094;13.714;2022-12-07T09:04:56;100039.59;;;3.47;86.20
75656;BME280;64252;51.094;13.714;2022-12-07T09:07:22;100048.88;;;3.64;86.34
75656;BME280;64252;51.094;13.714;2022-12-07T09:09:48;100044.78;;;3.73;84.40
75656;BME280;64252;51.094;13.714;2022-12-07T09:12:14;100048.81;;;3.88;84.51
75656;BME280;64252;51.094;13.714;2022-12-07T09:14:39;100040.09;;;3.89;83.52
75656;BME280;64252;51.094;13.714;2022-12-07T09:17:10;100042.69;;;4.10;82.73
75656;BME280;64252;51.094;13.714;2022-12-07T09:19:36;100047.28;;;4.30;82.83
75656;BME280;64252;51.094;13.714;2022-12-07T09:22:02;100033.28;;;4.43;82.37
75656;BME280;64252;51.094;13.714;2022-12-07T09:24:30;100036.06;;;4.43;81.25
75656;BME280;64252;51.094;13.714;2022-12-07T09:26:56;100029.81;;;4.33;81.05
75656;BME280;64252;51.094;13.714;2022-12-07T09:29:22;100037.75;;;4.31;81.04
75656;BME280;64252;51.094;13.714;2022-12-07T09:31:47;100041.63;;;4.27;81.54
75656;BME280;64252;51.094;13.714;2022-12-07T09:34:13;100036.59;;;4.32;81.35
75656;BME280;64252;51.094;13.714;2022-12-07T09:36:39;100047.34;;;4.18;80.72
75656;BME280;64252;51.094;13.714;2022-12-07T09:39:05;100043.41;;;4.07;81.77
75656;BME280;64252;51.094;13.714;2022-12-07T09:41:31;100042.94;;;4.17;80.93
75656;BME280;64252;51.094;13.714;2022-12-07T09:44:07;100041.97;;;4.25;81.00
75656;BME280;64252;51.094;13.714;2022-12-07T09:46:40;100039.16;;;4.25;80.51
75656;BME280;64252;51.094;13.714;2022-12-07T09:49:11;100046.47;;;4.58;79.64
75656;BME280;64252;51.094;13.714;2022-12-07T09:51:37;100030.19;;;4.91;78.35
75656;BME280;64252;51.094;13.714;2022-12-07T09:54:03;100042.84;;;5.16;77.98
75656;BME280;64252;51.094;13.714;2022-12-07T09:56:29;100029.13;;;5.27;77.15
75656;BME280;64252;51.094;13.714;2022-12-07T09:59:01;100031.09;;;5.26;77.14
75656;BME280;64252;51.094;13.714;2022-12-07T10:01:29;100021.69;;;5.19;77.73
75656;BME280;64252;51.094;13.714;2022-12-07T10:04:05;100022.16;;;5.37;76.28
75656;BME280;64252;51.094;13.714;2022-12-07T10:06:32;100013.28;;;5.35;76.82
75656;BME280;64252;51.094;13.714;2022-12-07T10:08:57;100022.16;;;5.37;76.19
75656;BME280;64252;51.094;13.714;2022-12-07T10:11:23;100015.91;;;5.27;75.69
75656;BME280;64252;51.094;13.714;2022-12-07T10:13:52;100012.06;;;5.67;76.45
75656;BME280;64252;51.094;13.714;2022-12-07T10:22:11;100006.66;;;6.32;72.98
75656;BME280;64252;51.094;13.714;2022-12-07T10:24:39;100008.56;;;6.47;73.00
75656;BME280;64252;51.094;13.714;2022-12-07T10:29:48;100001.44;;;5.76;73.53
75656;BME280;64252;51.094;13.714;2022-12-07T10:34:41;100007.69;;;5.50;76.04
75656;BME280;64252;51.094;13.714;2022-12-07T10:37:15;100004.16;;;5.38;76.70
75656;BME280;64252;51.094;13.714;2022-12-07T10:39:51;100005.56;;;5.12;76.78
75656;BME280;64252;51.094;13.714;2022-12-07T10:47:54;100000.47;;;4.71;79.45
75656;BME280;64252;51.094;13.714;2022-12-07T10:50:42;100001.13;;;4.80;79.51
75656;BME280;64252;51.094;13.714;2022-12-07T11:01:43;99997.38;;;4.45;82.03
75656;BME280;64252;51.094;13.714;2022-12-07T11:14:56;99970.53;;;4.87;81.23
75656;BME280;64252;51.094;13.714;2022-12-07T11:17:36;99969.66;;;4.99;80.03
75656;BME280;64252;51.094;13.714;2022-12-07T11:23:27;99977.13;;;4.95;80.51
75656;BME280;64252;51.094;13.714;2022-12-07T11:26:11;99972.25;;;4.76;79.91
75656;BME280;64252;51.094;13.714;2022-12-07T11:32:14;99973.75;;;4.58;81.42
75656;BME280;64252;51.094;13.714;2022-12-07T11:37:21;99986.47;;;4.12;83.86
75656;BME280;64252;51.094;13.714;2022-12-07T11:39:55;99995.81;;;3.64;86.92
75656;BME280;64252;51.094;13.714;2022-12-07T11:42:48;99993.78;;;3.36;89.31
75656;BME280;64252;51.094;13.714;2022-12-07T11:45:20;100001.69;;;3.22;90.01
75656;BME280;64252;51.094;13.714;2022-12-07T11:48:01;99988.69;;;3.14;89.84
75656;BME280;64252;51.094;13.714;2022-12-07T11:50:37;99988.69;;;3.14;90.53
75656;BME280;64252;51.094;13.714;2022-12-07T12:00:41;99985.53;;;3.16;92.07
75656;BME280;64252;51.094;13.714;2022-12-07T12:03:13;99980.91;;;3.20;92.37
75656;BME280;64252;51.094;13.714;2022-12-07T12:05:42;99969.28;;;3.18;92.33
75656;BME280;64252;51.094;13.714;2022-12-07T12:08:46;99970.56;;;3.20;92.30
75656;BME280;64252;51.094;13.714;2022-12-07T12:11:35;99973.47;;;3.24;92.03
75656;BME280;64252;51.094;13.714;2022-12-07T12:16:51;99973.34;;;3.32;92.47
75656;BME280;64252;51.094;13.714;2022-12-07T12:19:42;99965.16;;;3.51;91.75
75656;BME280;64252;51.094;13.714;2022-12-07T12:22:17;99956.06;;;3.67;91.03
75656;BME280;64252;51.094;13.714;2022-12-07T12:24:47;99952.06;;;3.68;90.77
75656;BME280;64252;51.094;13.714;2022-12-07T12:27:38;99954.84;;;3.80;89.90
75656;BME280;64252;51.094;13.714;2022-12-07T12:30:06;99965.03;;;3.88;90.42
75656;BME280;64252;51.094;13.714;2022-12-07T12:32:39;99955.75;;;3.84;90.34
75656;BME280;64252;51.094;13.714;2022-12-07T12:37:47;99949.00;;;3.85;89.39
75656;BME280;64252;51.094;13.714;2022-12-07T12:42:48;99957.06;;;4.02;89.10
75656;BME280;64252;51.094;13.714;2022-12-07T12:45:31;99951.78;;;4.13;89.38
75656;BME280;64252;51.094;13.714;2022-12-07T12:48:01;99950.16;;;4.12;87.87
75656;BME280;64252;51.094;13.714;2022-12-07T12:52:56;99946.81;;;4.06;86.53
75656;BME280;64252;51.094;13.714;2022-12-07T12:58:28;99949.44;;;3.87;87.38
75656;BME280;64252;51.094;13.714;2022-12-07T13:03:57;99970.25;;;3.49;87.96
75656;BME280;64252;51.094;13.714;2022-12-07T13:08:53;99975.09;;;3.00;89.79
75656;BME280;64252;51.094;13.714;2022-12-07T13:11:32;99975.53;;;2.78;90.75
75656;BME280;64252;51.094;13.714;2022-12-07T13:17:03;99964.69;;;2.40;92.79
75656;BME280;64252;51.094;13.714;2022-12-07T13:22:48;99965.06;;;2.51;92.65
75656;BME280;64252;51.094;13.714;2022-12-07T13:27:48;99973.63;;;2.46;92.25
75656;BME280;64252;51.094;13.714;2022-12-07T13:30:21;99964.94;;;2.47;92.03
75656;BME280;64252;51.094;13.714;2022-12-07T13:32:53;99959.59;;;2.42;91.36
75656;BME280;64252;51.094;13.714;2022-12-07T13:37:52;99957.50;;;2.39;92.22
75656;BME280;64252;51.094;13.714;2022-12-07T13:40:21;99949.81;;;2.36;93.18
75656;BME280;64252;51.094;13.714;2022-12-07T13:42:47;99962.72;;;2.41;93.19
75656;BME280;64252;51.094;13.714;2022-12-07T13:45:30;99956.59;;;2.47;92.60
75656;BME280;64252;51.094;13.714;2022-12-07T13:48:30;99949.63;;;2.53;93.32
75656;BME280;64252;51.094;13.714;2022-12-07T13:50:58;99954.50;;;2.56;93.59
75656;BME280;64252;51.094;13.714;2022-12-07T13:53:24;99953.34;;;2.57;93.21
75656;BME280;64252;51.094;13.714;2022-12-07T13:55:53;99958.22;;;2.60;93.16
75656;BME280;64252;51.094;13.714;2022-12-07T13:58:19;99960.78;;;2.65;93.67
75656;BME280;64252;51.094;13.714;2022-12-07T14:00:45;99963.56;;;2.65;93.69
75656;BME280;64252;51.094;13.714;2022-12-07T14:05:41;99956.63;;;2.72;93.51
75656;BME280;64252;51.094;13.714;2022-12-07T14:13:36;99955.31;;;2.69;93.72
75656;BME280;64252;51.094;13.714;2022-12-07T14:16:31;99964.38;;;2.66;92.92
75656;BME280;64252;51.094;13.714;2022-12-07T14:18:59;99965.53;;;2.65;93.35
75656;BME280;64252;51.094;13.714;2022-12-07T14:21:32;99967.28;;;2.70;93.47
75656;BME280;64252;51.094;13.714;2022-12-07T14:24:16;99965.91;;;2.76;92.46
75656;BME280;64252;51.094;13.714;2022-12-07T14:26:48;99948.72;;;2.86;92.71
75656;BME280;64252;51.094;13.714;2022-12-07T14:29:22;99951.50;;;2.86;92.78
75656;BME280;64252;51.094;13.714;2022-12-07T14:31:48;99951.16;;;2.87;93.37
75656;BME280;64252;51.094;13.714;2022-12-07T14:34:14;99942.34;;;2.85;92.67
75656;BME280;64252;51.094;13.714;2022-12-07T14:36:40;99942.66;;;2.84;93.01
75656;BME280;64252;51.094;13.714;2022-12-07T14:39:06;99939.78;;;2.80;94.01
75656;BME280;64252;51.094;13.714;2022-12-07T14:41:31;99934.09;;;2.77;94.08
75656;BME280;64252;51.094;13.714;2022-12-07T14:44:29;99944.75;;;2.75;94.29
75656;BME280;64252;51.094;13.714;2022-12-07T14:46:55;99945.25;;;2.77;94.51
75656;BME280;64252;51.094;13.714;2022-12-07T14:49:20;99940.34;;;2.74;95.23
75656;BME280;64252;51.094;13.714;2022-12-07T14:51:46;99940.34;;;2.74;95.84
75656;BME280;64252;51.094;13.714;2022-12-07T14:54:19;99936.41;;;2.75;94.03
75656;BME280;64252;51.094;13.714;2022-12-07T14:56:45;99943.50;;;2.72;94.70
75656;BME280;64252;51.094;13.714;2022-12-07T14:59:14;99936.19;;;2.68;95.25
75656;BME280;64252;51.094;13.714;2022-12-07T15:01:40;99944.06;;;2.65;95.58